Time;durP1;ratioP1;P1;durP2;ratioP2;P2;SDS_P1;SDS_P2;PMS_P1;PMS_P2;Temp;Humidity;BMP_temperature;BMP_pressure;BME280_temperature;BME280_humidity;BME280_pressure;Samples;Min_cycle;Max_cycle;Signal;HPM_P1;HPM_P2
2021/04/26 00:01:10;;;;;;;1.52;1.30;;;20.70;59.00;;;;;;5127272;28;20030;-38
2021/04/26 00:03:36;;;;;;;1.42;1.20;;;20.70;59.00;;;;;;5123202;28;20020;-38
2021/04/26 00:06:02;;;;;;;2.47;1.30;;;20.70;58.90;;;;;;5123280;28;20095;-41
2021/04/26 00:08:29;;;;;;;2.40;1.20;;;20.70;58.90;;;;;;5123149;28;20071;-37
2021/04/26 00:10:55;;;;;;;2.00;1.17;;;20.60;58.90;;;;;;5138233;28;20053;-38
2021/04/26 00:13:21;;;;;;;1.30;1.20;;;20.60;58.90;;;;;;5125397;28;20046;-37
2021/04/26 00:15:47;;;;;;;1.23;1.13;;;20.60;58.90;;;;;;5143724;28;20024;-38
2021/04/26 00:18:13;;;;;;;1.90;1.40;;;20.60;58.90;;;;;;5127662;28;20035;-38
2021/04/26 00:20:40;;;;;;;1.52;1.20;;;20.60;58.70;;;;;;5107988;28;20062;-37
2021/04/26 00:23:06;;;;;;;1.80;1.20;;;20.60;58.60;;;;;;5137807;27;20052;-37
2021/04/26 00:25:32;;;;;;;1.50;1.40;;;20.60;58.40;;;;;;5148050;27;20031;-37
2021/04/26 00:27:59;;;;;;;1.50;1.40;;;20.60;58.40;;;;;;5147889;27;20053;-37
2021/04/26 00:30:25;;;;;;;1.50;1.40;;;20.60;58.40;;;;;;5137790;27;20126;-38
2021/04/26 00:32:52;;;;;;;1.98;1.20;;;20.60;58.40;;;;;;5127128;28;20043;-38
2021/04/26 00:35:18;;;;;;;1.33;1.23;;;20.60;58.40;;;;;;5126931;28;20035;-37
2021/04/26 00:37:45;;;;;;;2.20;1.40;;;20.60;58.30;;;;;;5108755;28;20039;-37
2021/04/26 00:40:11;;;;;;;1.73;1.60;;;20.50;58.30;;;;;;5136024;27;20027;-38
2021/04/26 00:42:37;;;;;;;1.50;1.40;;;20.50;58.20;;;;;;5147743;27;20438;-38
2021/04/26 00:45:08;;;;;;;1.83;1.40;;;20.50;58.20;;;;;;5147473;27;20748;-38
2021/04/26 00:47:38;;;;;;;1.40;1.30;;;20.50;58.30;;;;;;5147670;27;20031;-37
2021/04/26 00:50:05;;;;;;;1.23;1.10;;;20.50;58.30;;;;;;5147449;27;20024;-37
2021/04/26 00:52:32;;;;;;;1.33;1.23;;;20.50;58.20;;;;;;5141620;27;20079;-37
2021/04/26 00:54:58;;;;;;;1.42;1.33;;;20.50;58.10;;;;;;5108458;28;20031;-37
2021/04/26 00:57:25;;;;;;;1.48;1.38;;;20.40;58.10;;;;;;5133639;27;20027;-39
2021/04/26 00:59:51;;;;;;;3.57;1.30;;;20.40;58.10;;;;;;5106495;28;20024;-37
2021/04/26 01:02:18;;;;;;;1.58;1.42;;;20.40;58.10;;;;;;5108173;28;20092;-37
2021/04/26 01:04:44;;;;;;;1.65;1.30;;;20.40;58.20;;;;;;5126336;28;20053;-37
2021/04/26 01:07:10;;;;;;;1.33;1.23;;;20.40;58.10;;;;;;5126652;28;20027;-37
2021/04/26 01:09:36;;;;;;;1.50;1.40;;;20.30;58.10;;;;;;5130165;27;20439;-38
2021/04/26 01:12:15;;;;;;;2.13;1.40;;;20.30;57.90;;;;;;5130001;27;20065;-37
2021/04/26 01:15:01;;;;;;;1.30;1.20;;;20.30;57.90;;;;;;5121332;28;20083;-37
2021/04/26 01:17:29;;;;;;;1.30;1.08;;;20.30;57.90;;;;;;5087489;28;20036;-37
2021/04/26 01:20:23;;;;;;;1.20;1.10;;;20.30;57.80;;;;;;5105909;28;20031;-37
2021/04/26 01:23:17;;;;;;;1.10;0.90;;;20.20;57.80;;;;;;5122184;27;20019;-37
2021/04/26 01:25:43;;;;;;;1.63;1.33;;;20.20;57.80;;;;;;5146393;27;20030;-37
2021/04/26 01:28:46;;;;;;;1.38;1.27;;;20.20;57.80;;;;;;5111526;28;20110;-39
2021/04/26 01:31:16;;;;;;;2.88;1.40;;;20.20;57.80;;;;;;5107314;28;20023;-37
2021/04/26 01:33:51;;;;;;;1.50;1.40;;;20.20;57.80;;;;;;5141125;27;20123;-37
2021/04/26 01:36:19;;;;;;;1.20;1.10;;;20.20;57.80;;;;;;5111240;27;20008;-37
2021/04/26 01:38:45;;;;;;;1.55;1.45;;;20.20;57.80;;;;;;5127425;27;20114;-37
2021/04/26 01:41:12;;;;;;;1.42;1.33;;;20.10;57.80;;;;;;5110028;27;20031;-37
2021/04/26 01:43:38;;;;;;;1.40;1.25;;;20.10;57.80;;;;;;5128059;27;20027;-38
2021/04/26 01:46:06;;;;;;;1.45;1.20;;;20.10;57.80;;;;;;5127540;27;20057;-37
2021/04/26 01:48:35;;;;;;;1.50;1.40;;;20.00;57.80;;;;;;5127921;27;20087;-37
2021/04/26 01:51:02;;;;;;;1.50;1.40;;;20.00;57.90;;;;;;5127664;27;20056;-37
2021/04/26 01:53:28;;;;;;;1.67;1.58;;;20.00;57.90;;;;;;5132495;27;20046;-37
2021/04/26 01:55:58;;;;;;;2.55;1.40;;;20.00;57.90;;;;;;5090145;28;20047;-37
2021/04/26 01:58:27;;;;;;;1.55;1.45;;;20.00;58.10;;;;;;5124971;27;20038;-37
2021/04/26 02:00:54;;;;;;;1.50;1.25;;;20.00;57.90;;;;;;5128092;27;20153;-38
2021/04/26 02:03:21;;;;;;;1.57;1.47;;;20.00;58.00;;;;;;5127802;27;20046;-37
2021/04/26 02:05:48;;;;;;;;;;;19.90;58.10;;;;;;5110871;27;20048;-39
2021/04/26 02:08:14;;;;;;;1.38;1.27;;;19.90;57.90;;;;;;5121783;28;19919;-37
2021/04/26 02:10:40;;;;;;;1.80;1.50;;;19.90;58.10;;;;;;5074132;28;20033;-37
2021/04/26 02:13:07;;;;;;;1.50;1.40;;;19.90;58.10;;;;;;5084194;28;20059;-38
2021/04/26 02:15:33;;;;;;;1.52;1.42;;;19.90;58.20;;;;;;5083231;28;20151;-37
2021/04/26 02:18:00;;;;;;;2.28;1.83;;;19.90;58.20;;;;;;5083009;28;20101;-37
2021/04/26 02:20:26;;;;;;;1.50;1.40;;;19.80;58.10;;;;;;5083062;28;20025;-37
2021/04/26 02:22:52;;;;;;;1.52;1.40;;;19.80;58.10;;;;;;5094850;28;20091;-37
2021/04/26 02:25:19;;;;;;;1.00;1.00;;;19.80;58.20;;;;;;5104375;28;20393;-37
2021/04/26 02:27:45;;;;;;;1.52;1.42;;;19.80;58.10;;;;;;5104384;28;20269;-43
2021/04/26 02:30:12;;;;;;;2.00;1.70;;;19.80;58.20;;;;;;5104578;28;20035;-37
2021/04/26 02:33:00;;;;;;;1.48;1.38;;;19.80;58.20;;;;;;5104436;28;20085;-37
2021/04/26 02:35:37;;;;;;;1.58;1.42;;;19.70;58.20;;;;;;5085630;28;20056;-37
2021/04/26 02:38:14;;;;;;;1.70;1.50;;;19.70;58.20;;;;;;5086041;28;20038;-39
2021/04/26 02:40:48;;;;;;;1.70;1.60;;;19.70;58.10;;;;;;5070140;28;20024;-39
2021/04/26 02:43:14;;;;;;;1.73;1.60;;;19.70;58.30;;;;;;5084936;28;20267;-37
2021/04/26 02:45:51;;;;;;;3.00;1.60;;;19.70;58.20;;;;;;5085604;28;20024;-37
2021/04/26 02:48:18;;;;;;;1.88;1.50;;;19.60;58.20;;;;;;5104120;28;20039;-38
2021/04/26 02:50:44;;;;;;;1.98;1.55;;;19.60;58.20;;;;;;5103798;28;20063;-37
2021/04/26 02:53:14;;;;;;;1.70;1.60;;;19.60;58.30;;;;;;5085011;28;20036;-37
2021/04/26 02:55:42;;;;;;;1.65;1.55;;;19.60;58.40;;;;;;5103507;28;20032;-37
2021/04/26 02:58:08;;;;;;;1.75;1.65;;;19.60;58.40;;;;;;5068835;28;20083;-37
2021/04/26 03:00:34;;;;;;;2.65;1.85;;;19.50;58.40;;;;;;5069022;28;20032;-37
2021/04/26 03:03:01;;;;;;;2.03;1.60;;;19.50;58.40;;;;;;5085596;28;20016;-37
2021/04/26 03:05:28;;;;;;;1.73;1.60;;;19.50;58.40;;;;;;5085115;28;20074;-37
2021/04/26 03:07:54;;;;;;;1.98;1.67;;;19.50;58.50;;;;;;5082619;28;20469;-37
2021/04/26 03:10:20;;;;;;;1.60;1.50;;;19.40;58.40;;;;;;5083349;28;20040;-36
2021/04/26 03:12:49;;;;;;;2.42;1.80;;;19.40;58.40;;;;;;5082742;28;20036;-37
2021/04/26 03:15:18;;;;;;;1.70;1.60;;;19.40;58.50;;;;;;5082849;28;20080;-37
2021/04/26 03:17:45;;;;;;;1.60;1.50;;;19.40;58.60;;;;;;5083076;28;20028;-37
2021/04/26 03:20:15;;;;;;;1.60;1.50;;;19.40;58.50;;;;;;5083268;28;20047;-37
2021/04/26 03:22:42;;;;;;;1.77;1.63;;;19.40;58.50;;;;;;5076105;28;20025;-37
2021/04/26 03:25:09;;;;;;;1.60;1.50;;;19.40;58.50;;;;;;5067071;28;20048;-37
2021/04/26 03:27:36;;;;;;;2.53;1.35;;;19.30;58.50;;;;;;5082584;28;20066;-37
2021/04/26 03:30:05;;;;;;;1.58;1.48;;;19.30;58.60;;;;;;5065303;28;20107;-37
2021/04/26 03:32:31;;;;;;;1.88;1.63;;;19.30;58.50;;;;;;5082947;28;20409;-37
2021/04/26 03:34:58;;;;;;;1.50;1.40;;;19.30;58.60;;;;;;5065000;28;20043;-37
2021/04/26 03:37:24;;;;;;;1.63;1.52;;;19.30;58.60;;;;;;5047946;28;20020;-37
2021/04/26 03:39:50;;;;;;;1.70;1.60;;;19.30;58.50;;;;;;5064998;28;20439;-38
2021/04/26 03:42:17;;;;;;;1.77;1.67;;;19.20;58.60;;;;;;5082378;28;20043;-37
2021/04/26 03:44:44;;;;;;;1.73;1.63;;;19.20;58.70;;;;;;5082750;28;20032;-37
2021/04/26 03:47:11;;;;;;;2.90;1.90;;;19.20;58.80;;;;;;5082494;28;20032;-37
2021/04/26 03:49:37;;;;;;;2.40;1.65;;;19.20;58.70;;;;;;5082707;28;20021;-37
2021/04/26 03:52:04;;;;;;;1.67;1.58;;;19.20;58.70;;;;;;5082540;28;20044;-37
2021/04/26 03:54:30;;;;;;;2.03;1.65;;;19.10;58.80;;;;;;5082385;28;20031;-37
2021/04/26 03:56:57;;;;;;;1.85;1.70;;;19.10;58.80;;;;;;5082224;28;20036;-37
2021/04/26 03:59:23;;;;;;;1.80;1.70;;;19.10;58.80;;;;;;5082857;28;20034;-37
2021/04/26 04:01:49;;;;;;;1.88;1.60;;;19.10;58.80;;;;;;5082641;28;20079;-37
2021/04/26 04:04:15;;;;;;;2.17;1.73;;;19.10;58.80;;;;;;5082650;28;20083;-37
2021/04/26 04:06:41;;;;;;;1.88;1.55;;;19.10;58.70;;;;;;5082235;28;20111;-37
2021/04/26 04:09:08;;;;;;;1.85;1.48;;;19.00;58.70;;;;;;5076900;28;20540;-37
2021/04/26 04:11:34;;;;;;;1.77;1.67;;;19.00;58.90;;;;;;5102745;28;20040;-37
2021/04/26 04:14:01;;;;;;;1.90;1.70;;;19.00;58.90;;;;;;5102649;28;20464;-37
2021/04/26 04:16:28;;;;;;;2.22;1.73;;;19.00;58.80;;;;;;5084531;28;20584;-38
2021/04/26 04:18:54;;;;;;;2.00;1.80;;;19.00;58.90;;;;;;5102599;28;20024;-40
2021/04/26 04:21:21;;;;;;;2.08;1.88;;;18.90;59.00;;;;;;5102661;28;20111;-37
2021/04/26 04:23:47;;;;;;;2.03;1.83;;;18.90;59.00;;;;;;5102603;28;20709;-37
2021/04/26 04:26:13;;;;;;;1.88;1.67;;;18.90;59.00;;;;;;5084426;28;20476;-37
2021/04/26 04:28:39;;;;;;;2.65;1.80;;;18.90;58.90;;;;;;5102122;28;20028;-36
2021/04/26 04:31:05;;;;;;;1.88;1.77;;;18.90;58.90;;;;;;5102417;28;20024;-37
2021/04/26 04:33:32;;;;;;;1.90;1.63;;;18.90;59.10;;;;;;5102687;28;20063;-37
2021/04/26 04:35:58;;;;;;;2.03;1.88;;;18.90;59.10;;;;;;5102403;28;20028;-36
2021/04/26 04:38:27;;;;;;;1.67;1.58;;;18.80;59.10;;;;;;5102421;28;20729;-37
2021/04/26 04:40:55;;;;;;;2.50;1.90;;;18.80;59.20;;;;;;5102394;28;20035;-37
2021/04/26 04:43:21;;;;;;;1.80;1.70;;;18.70;59.20;;;;;;5102402;28;20035;-39
2021/04/26 04:45:48;;;;;;;2.20;1.95;;;18.70;59.30;;;;;;5102559;28;20040;-37
2021/04/26 04:48:14;;;;;;;2.88;2.13;;;18.70;59.30;;;;;;5101657;28;20031;-37
2021/04/26 04:50:40;;;;;;;2.10;1.58;;;18.70;59.30;;;;;;5102552;28;20032;-37
2021/04/26 04:53:06;;;;;;;2.08;1.88;;;18.70;59.30;;;;;;5083934;28;20464;-38
2021/04/26 04:55:32;;;;;;;1.67;1.58;;;18.70;59.30;;;;;;5102309;28;20096;-37
2021/04/26 04:57:58;;;;;;;1.88;1.67;;;18.60;59.30;;;;;;5101705;28;20036;-37
2021/04/26 05:00:25;;;;;;;1.67;1.58;;;18.60;59.30;;;;;;5102173;28;20027;-37
2021/04/26 05:02:51;;;;;;;2.08;1.88;;;18.60;59.40;;;;;;5102251;28;20031;-42
2021/04/26 05:05:17;;;;;;;1.98;1.77;;;18.60;59.50;;;;;;5102586;28;20116;-37
2021/04/26 05:07:43;;;;;;;1.80;1.70;;;18.60;59.70;;;;;;5105362;28;20028;-37
2021/04/26 05:10:10;;;;;;;2.35;2.00;;;18.60;59.40;;;;;;5105926;28;20036;-36
2021/04/26 05:12:36;;;;;;;1.90;1.60;;;18.60;59.50;;;;;;5105354;28;20039;-37
2021/04/26 05:15:03;;;;;;;2.05;1.88;;;18.50;59.50;;;;;;5105914;28;20036;-36
2021/04/26 05:17:30;;;;;;;;;;;18.50;59.50;;;;;;5105557;28;20048;-37
2021/04/26 05:19:56;;;;;;;2.15;1.88;;;18.50;59.60;;;;;;5087528;28;19911;-37
2021/04/26 05:22:22;;;;;;;2.47;1.90;;;18.50;59.70;;;;;;5087116;28;20034;-37
2021/04/26 05:24:48;;;;;;;3.03;1.67;;;18.40;59.60;;;;;;5105708;28;20028;-37
2021/04/26 05:27:14;;;;;;;2.13;1.92;;;18.40;60.40;;;;;;5104949;28;20088;-37
2021/04/26 05:29:40;;;;;;;2.20;1.92;;;18.40;59.80;;;;;;5105514;28;20028;-36
2021/04/26 05:32:08;;;;;;;2.00;1.80;;;18.40;59.80;;;;;;5105480;28;20066;-36
2021/04/26 05:34:35;;;;;;;2.38;1.98;;;18.40;59.80;;;;;;5105642;28;20424;-37
2021/04/26 05:37:01;;;;;;;2.03;1.73;;;18.40;60.50;;;;;;5104793;28;20055;-37
2021/04/26 05:39:27;;;;;;;1.88;1.77;;;18.30;59.80;;;;;;5104980;28;20027;-37
2021/04/26 05:41:53;;;;;;;2.13;1.90;;;18.30;59.80;;;;;;5104793;28;20059;-37
2021/04/26 05:44:19;;;;;;;2.20;2.00;;;18.30;59.90;;;;;;5105178;28;20024;-37
2021/04/26 05:46:45;;;;;;;2.28;1.98;;;18.30;59.90;;;;;;5105104;28;20036;-37
2021/04/26 05:49:12;;;;;;;3.10;2.00;;;18.30;59.80;;;;;;5104923;28;20039;-37
2021/04/26 05:51:38;;;;;;;2.13;1.90;;;18.20;59.90;;;;;;5086541;28;20028;-37
2021/04/26 05:54:04;;;;;;;1.90;1.80;;;18.20;59.90;;;;;;5105143;28;20036;-37
2021/04/26 05:56:31;;;;;;;1.43;1.33;;;18.20;60.00;;;;;;5104782;28;20028;-37
2021/04/26 05:58:57;;;;;;;2.22;2.03;;;18.20;60.00;;;;;;5104580;28;20024;-36
2021/04/26 06:01:23;;;;;;;2.30;2.10;;;18.20;60.00;;;;;;5104937;28;20020;-37
2021/04/26 06:03:49;;;;;;;1.80;1.67;;;18.10;60.00;;;;;;5105010;28;20024;-36
2021/04/26 06:06:15;;;;;;;2.35;2.15;;;18.10;59.90;;;;;;5104231;28;20028;-37
2021/04/26 06:08:41;;;;;;;2.10;1.95;;;18.10;60.20;;;;;;5104296;28;20071;-38
2021/04/26 06:11:08;;;;;;;1.90;1.70;;;18.10;60.10;;;;;;5086453;28;20032;-37
2021/04/26 06:13:34;;;;;;;2.10;1.90;;;18.10;60.00;;;;;;5104192;28;20058;-37
2021/04/26 06:16:00;;;;;;;3.58;1.90;;;18.10;60.00;;;;;;5104664;28;20071;-37
2021/04/26 06:18:26;;;;;;;1.95;1.83;;;18.10;60.10;;;;;;5104126;28;20028;-37
2021/04/26 06:20:53;;;;;;;2.00;1.77;;;18.00;60.10;;;;;;5104256;28;20032;-36
2021/04/26 06:23:19;;;;;;;2.40;1.92;;;18.00;60.20;;;;;;5092065;28;20047;-37
2021/04/26 06:25:46;;;;;;;2.10;1.90;;;18.00;60.20;;;;;;5084185;28;20029;-37
2021/04/26 06:28:13;;;;;;;1.90;1.70;;;17.90;60.10;;;;;;5099468;28;20029;-37
2021/04/26 06:30:40;;;;;;;2.17;1.98;;;17.90;60.10;;;;;;5084227;28;20024;-36
2021/04/26 06:33:08;;;;;;;;;;;17.90;60.10;;;;;;5084326;28;20033;-36
2021/04/26 06:35:35;;;;;;;2.33;2.13;;;17.90;60.00;;;;;;5083867;28;19909;-37
2021/04/26 06:38:01;;;;;;;1.90;1.80;;;17.90;60.30;;;;;;5093776;28;20055;-37
2021/04/26 06:40:27;;;;;;;2.00;1.90;;;17.90;60.30;;;;;;5104293;28;20032;-37
2021/04/26 06:42:53;;;;;;;3.28;1.75;;;17.80;60.30;;;;;;5104176;28;20032;-37
2021/04/26 06:45:23;;;;;;;1.85;1.75;;;17.80;60.20;;;;;;5103803;28;20082;-37
2021/04/26 06:47:53;;;;;;;2.22;1.98;;;17.80;60.20;;;;;;5103554;28;20043;-36
2021/04/26 06:50:19;;;;;;;2.63;1.90;;;17.80;60.30;;;;;;5103917;28;20051;-37
2021/04/26 06:52:46;;;;;;;2.25;2.00;;;17.80;60.30;;;;;;5103174;28;20043;-36
2021/04/26 06:55:13;;;;;;;2.22;1.90;;;17.80;60.40;;;;;;5103790;28;20040;-38
2021/04/26 06:57:39;;;;;;;2.13;1.92;;;17.80;60.40;;;;;;5103564;28;20048;-37
2021/04/26 07:00:06;;;;;;;1.88;1.70;;;17.80;60.40;;;;;;5103824;28;20035;-37
2021/04/26 07:02:32;;;;;;;2.10;1.95;;;17.70;60.40;;;;;;5103846;28;20035;-37
2021/04/26 07:04:58;;;;;;;1.90;1.80;;;17.70;60.30;;;;;;5103630;28;20087;-36
2021/04/26 07:07:24;;;;;;;2.00;1.75;;;17.70;60.40;;;;;;5103031;28;20042;-37
2021/04/26 07:09:51;;;;;;;2.15;1.95;;;17.70;60.40;;;;;;5103222;28;20127;-36
2021/04/26 07:12:18;;;;;;;2.63;1.85;;;17.70;60.30;;;;;;5103341;28;20032;-36
2021/04/26 07:14:46;;;;;;;2.10;1.83;;;17.70;60.50;;;;;;5103401;28;20048;-37
2021/04/26 07:17:12;;;;;;;2.22;2.03;;;17.70;60.50;;;;;;5102789;28;20016;-37
2021/04/26 07:19:39;;;;;;;2.58;2.10;;;17.60;60.40;;;;;;5103036;28;20032;-38
2021/04/26 07:22:05;;;;;;;2.22;2.03;;;17.60;60.40;;;;;;5103014;28;20102;-37
2021/04/26 07:24:31;;;;;;;2.15;1.80;;;17.60;60.30;;;;;;5103415;28;20058;-37
2021/04/26 07:26:57;;;;;;;1.85;1.75;;;17.60;60.40;;;;;;5103158;28;20032;-36
2021/04/26 07:29:23;;;;;;;2.30;2.05;;;17.60;60.40;;;;;;5102429;28;20104;-37
2021/04/26 07:31:50;;;;;;;2.33;2.00;;;17.60;60.50;;;;;;5085063;28;20036;-37
2021/04/26 07:34:16;;;;;;;3.15;1.85;;;17.50;60.40;;;;;;5103254;28;20024;-37
2021/04/26 07:36:42;;;;;;;2.75;1.95;;;17.50;60.50;;;;;;5098432;28;20074;-37
2021/04/26 07:39:08;;;;;;;2.38;2.17;;;17.50;60.50;;;;;;5094849;28;20020;-37
2021/04/26 07:41:35;;;;;;;2.30;2.10;;;17.50;60.60;;;;;;5094932;28;20108;-37
2021/04/26 07:44:01;;;;;;;2.40;2.13;;;17.50;60.50;;;;;;5094827;28;20028;-36
2021/04/26 07:46:27;;;;;;;2.80;2.08;;;17.40;60.60;;;;;;5095448;28;20749;-37
2021/04/26 07:48:54;;;;;;;2.53;2.30;;;17.40;60.60;;;;;;5095829;28;20055;-37
2021/04/26 07:51:20;;;;;;;1.92;1.83;;;17.50;60.50;;;;;;5095431;28;20024;-37
2021/04/26 07:53:47;;;;;;;2.10;1.88;;;17.40;60.50;;;;;;5094451;28;20044;-37
2021/04/26 07:56:13;;;;;;;2.33;2.13;;;17.40;60.50;;;;;;5095973;28;20480;-37
2021/04/26 07:58:39;;;;;;;2.30;2.10;;;17.40;60.50;;;;;;5095583;28;20050;-37
2021/04/26 08:01:05;;;;;;;2.17;1.98;;;17.40;60.60;;;;;;5095442;28;20082;-37
2021/04/26 08:03:31;;;;;;;1.88;1.67;;;17.40;60.60;;;;;;5094822;28;20088;-37
2021/04/26 08:05:57;;;;;;;2.28;2.08;;;17.40;60.60;;;;;;5097787;28;20028;-37
2021/04/26 08:08:25;;;;;;;2.35;1.80;;;17.40;60.60;;;;;;5102161;28;20086;-37
2021/04/26 08:10:51;;;;;;;1.88;1.77;;;17.40;60.60;;;;;;5102670;28;20036;-37
2021/04/26 08:13:17;;;;;;;3.17;2.20;;;17.40;60.60;;;;;;5102617;28;20052;-37
2021/04/26 08:15:43;;;;;;;2.42;1.90;;;17.30;60.60;;;;;;5084450;28;20028;-37
2021/04/26 08:18:09;;;;;;;2.17;1.80;;;17.30;60.60;;;;;;5102230;28;20024;-37
2021/04/26 08:20:36;;;;;;;2.60;2.03;;;17.30;60.60;;;;;;5102502;28;20025;-37
2021/04/26 08:23:03;;;;;;;2.17;1.98;;;17.30;60.60;;;;;;5074262;28;20038;-37
2021/04/26 08:25:29;;;;;;;2.30;2.10;;;17.30;60.60;;;;;;5082188;28;20032;-37
2021/04/26 08:27:58;;;;;;;2.10;1.83;;;17.20;60.60;;;;;;5082436;28;20034;-37
2021/04/26 08:30:25;;;;;;;2.00;1.80;;;17.20;60.60;;;;;;5064046;28;20102;-37
2021/04/26 08:32:51;;;;;;;2.10;1.90;;;17.20;60.70;;;;;;5082301;28;20032;-38
2021/04/26 08:35:17;;;;;;;2.22;2.03;;;17.20;60.80;;;;;;5083140;28;20025;-37
2021/04/26 08:37:43;;;;;;;2.30;2.10;;;17.20;60.70;;;;;;5102169;28;20131;-36
2021/04/26 08:40:10;;;;;;;2.10;1.80;;;17.20;60.70;;;;;;5102270;28;20040;-37
2021/04/26 08:42:36;;;;;;;2.42;2.13;;;17.20;60.80;;;;;;5106331;28;20020;-37
2021/04/26 08:45:03;;;;;;;2.30;2.10;;;17.20;60.80;;;;;;5087690;28;20020;-37
2021/04/26 08:47:30;;;;;;;2.47;1.85;;;17.10;60.70;;;;;;5106499;28;20034;-37
2021/04/26 08:49:58;;;;;;;2.00;1.77;;;17.10;60.70;;;;;;5087454;28;20031;-37
2021/04/26 08:52:27;;;;;;;2.10;1.83;;;17.10;60.70;;;;;;5105002;28;20489;-36
2021/04/26 08:54:54;;;;;;;2.50;2.13;;;17.10;60.60;;;;;;5106378;28;20031;-37
2021/04/26 08:57:20;;;;;;;1.95;1.75;;;17.10;60.70;;;;;;5106088;28;20560;-37
2021/04/26 08:59:47;;;;;;;2.30;2.10;;;17.10;60.80;;;;;;5105982;28;20063;-37
2021/04/26 09:02:13;;;;;;;2.08;1.85;;;17.10;60.90;;;;;;5106291;28;20032;-36
2021/04/26 09:04:48;;;;;;;2.47;2.25;;;17.10;60.70;;;;;;5105955;28;20054;-38
2021/04/26 09:07:14;;;;;;;1.75;1.65;;;17.00;60.80;;;;;;5105411;28;20031;-36
2021/04/26 09:09:41;;;;;;;5.28;2.33;;;17.00;60.80;;;;;;5105618;28;20056;-37
2021/04/26 09:12:28;;;;;;;2.00;1.80;;;17.00;60.80;;;;;;5105849;28;20035;-36
2021/04/26 09:14:59;;;;;;;1.65;1.55;;;17.00;60.80;;;;;;5105851;28;20032;-36
2021/04/26 09:17:35;;;;;;;2.20;2.00;;;17.00;60.80;;;;;;5105781;28;20024;-37
2021/04/26 09:20:20;;;;;;;2.30;2.00;;;17.00;60.80;;;;;;5087542;28;20554;-37
2021/04/26 09:22:50;;;;;;;2.40;1.90;;;17.00;60.90;;;;;;5104961;28;20084;-37
2021/04/26 09:25:20;;;;;;;2.15;1.95;;;17.00;60.90;;;;;;5105700;28;20039;-37
2021/04/26 09:28:11;;;;;;;2.85;2.40;;;16.90;60.80;;;;;;5105592;28;20025;-37
2021/04/26 09:30:44;;;;;;;2.10;1.90;;;16.90;60.80;;;;;;5105178;28;20032;-37
2021/04/26 09:33:17;;;;;;;2.38;1.90;;;16.90;60.80;;;;;;5105020;28;20036;-37
2021/04/26 09:35:44;;;;;;;2.00;1.83;;;16.90;60.80;;;;;;5103499;28;20020;-37
2021/04/26 09:38:29;;;;;;;1.75;1.65;;;16.90;60.80;;;;;;5098004;28;20088;-37
2021/04/26 09:41:12;;;;;;;2.33;2.13;;;16.90;60.80;;;;;;5079717;28;20106;-36
2021/04/26 09:43:40;;;;;;;1.83;1.70;;;16.90;60.90;;;;;;5097694;28;20054;-36
2021/04/26 09:46:06;;;;;;;2.10;1.80;;;16.80;60.80;;;;;;5080123;28;20024;-36
2021/04/26 09:48:33;;;;;;;3.30;1.88;;;16.80;60.90;;;;;;5098492;28;20024;-37
2021/04/26 09:51:10;;;;;;;1.88;1.73;;;16.80;60.90;;;;;;5097462;28;20024;-37
2021/04/26 09:53:41;;;;;;;2.10;1.90;;;16.80;60.80;;;;;;5097370;28;20040;-37
2021/04/26 09:56:23;;;;;;;1.95;1.65;;;16.80;60.90;;;;;;5097683;28;20020;-37
2021/04/26 09:58:54;;;;;;;2.10;1.80;;;16.80;60.90;;;;;;5097828;28;20039;-36
2021/04/26 10:01:21;;;;;;;2.20;1.70;;;16.80;61.00;;;;;;5097143;28;20036;-37
2021/04/26 10:03:47;;;;;;;2.08;1.88;;;16.80;60.90;;;;;;5080260;28;20032;-39
2021/04/26 10:06:14;;;;;;;1.80;1.53;;;16.70;60.90;;;;;;5100599;28;20120;-37
2021/04/26 10:08:46;;;;;;;2.20;1.85;;;16.70;60.90;;;;;;5086419;28;20058;-37
2021/04/26 10:11:13;;;;;;;2.10;1.90;;;16.70;60.90;;;;;;5103944;28;20024;-37
2021/04/26 10:13:39;;;;;;;2.33;1.88;;;16.70;61.00;;;;;;5086685;28;20032;-37
2021/04/26 10:16:07;;;;;;;1.95;1.75;;;16.70;60.90;;;;;;5086479;28;20030;-37
2021/04/26 10:18:35;;;;;;;1.85;1.60;;;16.70;61.10;;;;;;5103558;28;20076;-37
2021/04/26 10:21:04;;;;;;;2.40;1.92;;;16.70;61.80;;;;;;5103100;28;20135;-37
2021/04/26 10:23:37;;;;;;;2.63;1.65;;;16.70;61.10;;;;;;5090399;28;20021;-37
2021/04/26 10:26:03;;;;;;;1.80;1.70;;;16.70;61.10;;;;;;5084079;28;20029;-37
2021/04/26 10:28:34;;;;;;;1.75;1.65;;;16.60;61.00;;;;;;5084126;28;20028;-37
2021/04/26 10:31:18;;;;;;;2.30;2.03;;;16.60;61.10;;;;;;5083759;28;20035;-37
2021/04/26 10:33:58;;;;;;;1.67;1.58;;;16.60;61.10;;;;;;5083892;28;20028;-37
2021/04/26 10:36:46;;;;;;;1.65;1.50;;;16.60;61.10;;;;;;5093994;28;20056;-37
2021/04/26 10:39:16;;;;;;;1.65;1.48;;;16.60;61.10;;;;;;5104179;28;20035;-36
2021/04/26 10:41:59;;;;;;;1.58;1.48;;;16.60;61.20;;;;;;5104029;28;20576;-37
2021/04/26 10:44:40;;;;;;;1.52;1.38;;;16.60;61.10;;;;;;5103484;28;20070;-37
2021/04/26 10:47:34;;;;;;;3.15;1.88;;;16.60;61.10;;;;;;5104110;28;20070;-37
2021/04/26 10:50:06;;;;;;;1.80;1.70;;;16.50;61.10;;;;;;5101169;28;20032;-37
2021/04/26 10:52:36;;;;;;;2.92;1.58;;;16.50;61.20;;;;;;5102505;28;20060;-37
2021/04/26 10:55:23;;;;;;;1.50;1.40;;;16.50;61.20;;;;;;5103993;28;20032;-37
2021/04/26 10:57:59;;;;;;;1.80;1.65;;;16.50;61.20;;;;;;5103657;28;20058;-37
2021/04/26 11:00:32;;;;;;;2.00;1.80;;;16.50;61.30;;;;;;5103475;28;20039;-38
2021/04/26 11:03:09;;;;;;;1.70;1.60;;;16.50;61.40;;;;;;5102814;28;20081;-37
2021/04/26 11:05:40;;;;;;;1.63;1.50;;;16.50;61.40;;;;;;5103770;28;20021;-37
2021/04/26 11:10:45;;;;;;;2.55;1.70;;;16.50;61.30;;;;;;5091599;28;20139;-37
2021/04/26 11:16:18;;;;;;;1.80;1.70;;;16.40;61.30;;;;;;5083618;28;20031;-37
2021/04/26 11:19:02;;;;;;;2.63;1.75;;;16.40;61.30;;;;;;5083023;28;20814;-37
2021/04/26 11:21:44;;;;;;;1.88;1.60;;;16.40;61.40;;;;;;5103038;28;20043;-37
2021/04/26 11:24:16;;;;;;;2.47;1.38;;;16.40;61.40;;;;;;5103252;28;20032;-37
2021/04/26 11:26:42;;;;;;;1.90;1.70;;;16.40;61.50;;;;;;5103270;28;20048;-37
2021/04/26 11:29:11;;;;;;;2.08;1.73;;;16.30;61.40;;;;;;5103069;28;20127;-37
2021/04/26 11:31:43;;;;;;;1.50;1.40;;;16.40;61.40;;;;;;5103046;28;20560;-37
2021/04/26 11:34:13;;;;;;;1.75;1.45;;;16.40;61.40;;;;;;5103390;28;20024;-37
2021/04/26 11:36:40;;;;;;;1.50;1.40;;;16.40;61.40;;;;;;5098335;28;20059;-37
2021/04/26 11:39:07;;;;;;;1.77;1.50;;;16.30;61.50;;;;;;5095506;28;20046;-37
2021/04/26 11:41:39;;;;;;;;;;;16.30;61.50;;;;;;5096353;28;20036;-36
2021/04/26 11:44:06;;;;;;;1.60;1.40;;;16.30;61.50;;;;;;5095110;28;19922;-36
2021/04/26 11:46:33;;;;;;;1.80;1.23;;;16.30;61.50;;;;;;5096068;28;20046;-36
2021/04/26 11:49:21;;;;;;;1.80;1.65;;;16.30;61.60;;;;;;5095470;28;20501;-37
2021/04/26 11:51:49;;;;;;;2.15;1.80;;;16.30;61.50;;;;;;5094369;28;20126;-36
2021/04/26 11:54:18;;;;;;;1.67;1.50;;;16.30;61.60;;;;;;5095047;28;20074;-37
2021/04/26 11:57:04;;;;;;;1.60;1.50;;;16.30;61.60;;;;;;5095672;28;20024;-37
2021/04/26 11:59:30;;;;;;;1.85;1.20;;;16.30;61.60;;;;;;5094429;28;20027;-37
2021/04/26 12:01:56;;;;;;;1.50;1.35;;;16.20;61.70;;;;;;5076933;28;20102;-37
2021/04/26 12:05:01;;;;;;;1.65;1.33;;;16.20;61.60;;;;;;5095132;28;20051;-37
2021/04/26 12:07:27;;;;;;;1.45;1.35;;;16.20;61.50;;;;;;5019151;28;20072;-37
2021/04/26 12:09:58;;;;;;;1.88;1.50;;;16.20;61.60;;;;;;5025959;28;20105;-38
2021/04/26 12:12:26;;;;;;;1.67;1.40;;;16.20;61.60;;;;;;5039539;28;20049;-38
2021/04/26 12:14:54;;;;;;;1.92;1.42;;;16.20;61.60;;;;;;5042550;28;20029;-38
2021/04/26 12:17:23;;;;;;;1.80;1.40;;;16.20;61.70;;;;;;5046548;28;20076;-37
2021/04/26 12:19:50;;;;;;;1.50;1.40;;;16.20;61.70;;;;;;5030383;28;20033;-37
2021/04/26 12:22:16;;;;;;;1.58;1.45;;;16.20;61.60;;;;;;5042285;28;20086;-37
2021/04/26 12:24:43;;;;;;;1.20;1.10;;;16.20;61.70;;;;;;5042482;28;20113;-37
2021/04/26 12:27:16;;;;;;;1.80;1.70;;;16.20;61.60;;;;;;5026484;28;20267;-37
2021/04/26 12:29:43;;;;;;;1.58;1.48;;;16.20;61.60;;;;;;5026258;28;21026;-37
2021/04/26 12:32:13;;;;;;;1.85;1.55;;;16.20;61.60;;;;;;5026193;28;20037;-38
2021/04/26 12:35:07;;;;;;;1.45;1.33;;;16.20;61.70;;;;;;5026666;28;20068;-37
2021/04/26 12:37:38;;;;;;;1.40;1.30;;;16.20;61.60;;;;;;5042860;28;20160;-37
2021/04/26 12:40:24;;;;;;;1.45;1.23;;;16.10;61.50;;;;;;5037998;28;20530;-37
2021/04/26 12:42:57;;;;;;;1.85;1.50;;;16.20;61.60;;;;;;5054646;28;20055;-37
2021/04/26 12:45:45;;;;;;;1.58;1.40;;;16.10;61.60;;;;;;5071897;28;20056;-37
2021/04/26 12:48:13;;;;;;;1.63;1.40;;;16.10;61.70;;;;;;5088948;28;20052;-37
2021/04/26 12:50:40;;;;;;;1.33;1.23;;;16.10;61.60;;;;;;5088950;28;20032;-37
2021/04/26 12:53:14;;;;;;;1.33;1.23;;;16.10;61.50;;;;;;5087843;28;20032;-37
2021/04/26 12:55:42;;;;;;;1.20;1.10;;;16.10;61.60;;;;;;5089069;28;20060;-37
2021/04/26 12:58:10;;;;;;;1.35;1.20;;;16.20;61.70;;;;;;5088719;28;20067;-38
2021/04/26 13:00:37;;;;;;;;;;;16.20;61.60;;;;;;5089448;28;20021;-37
2021/04/26 13:03:32;;;;;;;1.52;1.10;;;16.20;61.60;;;;;;5088504;28;19913;-37